Time,TemperatureF,DewpointF,PressureIn,WindDirection,WindDirectionDegrees,WindSpeedMPH,WindSpeedGustMPH,Humidity,HourlyPrecipIn,Conditions,Clouds,dailyrainin,SoftwareType,DateUTC
2013-08-29 00:14:00,83.0,69.0,29.94,SSW,207,3.0,12.0,62,0.00,,,0.00,,2013-08-29 05:14:00,
2013-08-29 00:23:00,82.0,68.0,29.94,SSW,210,5.0,12.0,62,0.00,,,0.00,,2013-08-29 05:23:00,
2013-08-29 00:52:00,81.0,67.0,29.95,SSW,196,3.0,10.0,63,0.00,,,0.00,,2013-08-29 05:52:00,
2013-08-29 01:12:00,81.0,68.0,29.95,SW,217,3.0,10.0,65,0.00,,,0.00,,2013-08-29 06:12:00,
2013-08-29 01:22:00,81.0,69.0,29.95,SSW,213,2.0,8.0,66,0.00,,,0.00,,2013-08-29 06:22:00,
2013-08-29 01:52:00,80.0,68.0,29.95,SSW,207,0.0,0.0,67,0.00,,,0.00,,2013-08-29 06:52:00,
2013-08-29 02:12:00,80.0,68.0,29.95,SSW,203,0.0,6.0,68,0.00,,,0.00,,2013-08-29 07:12:00,
2013-08-29 02:22:00,79.0,68.0,29.94,SW,224,0.0,7.0,69,0.00,,,0.00,,2013-08-29 07:22:00,
2013-08-29 02:53:00,79.0,68.0,29.95,SW,223,0.0,0.0,69,0.00,,,0.00,,2013-08-29 07:53:00,
2013-08-29 03:12:00,79.0,68.0,29.95,SW,224,0.0,0.0,70,0.00,,,0.00,,2013-08-29 08:12:00,
2013-08-29 03:22:00,78.0,68.0,29.95,North,355,0.0,0.0,71,0.00,,,0.00,,2013-08-29 08:22:00,
2013-08-29 03:52:00,78.0,69.0,29.95,North,355,0.0,0.0,73,0.00,,,0.00,,2013-08-29 08:52:00,
2013-08-29 04:12:00,78.0,69.0,29.95,North,355,0.0,0.0,73,0.00,,,0.00,,2013-08-29 09:12:00,
2013-08-29 04:22:00,77.0,68.0,29.96,North,349,0.0,0.0,74,0.00,,,0.00,,2013-08-29 09:22:00,
2013-08-29 04:43:00,77.0,68.0,29.96,North,349,0.0,0.0,74,0.00,,,0.00,,2013-08-29 09:43:00,
2013-08-29 04:55:00,77.0,68.0,29.96,North,349,0.0,0.0,75,0.00,,,0.00,,2013-08-29 09:55:00,
2013-08-29 05:24:00,76.0,68.0,29.96,North,349,0.0,0.0,77,0.00,,,0.00,,2013-08-29 10:24:00,
2013-08-29 05:53:00,76.0,69.0,29.96,North,349,0.0,0.0,79,0.00,,,0.00,,2013-08-29 10:53:00,
2013-08-29 06:12:00,75.0,68.0,29.96,WNW,286,0.0,0.0,79,0.00,,,0.00,,2013-08-29 11:12:00,
2013-08-29 06:22:00,75.0,68.0,29.96,West,275,0.0,0.0,80,0.00,,,0.00,,2013-08-29 11:22:00,
2013-08-29 06:52:00,74.0,68.0,29.97,West,275,0.0,0.0,81,0.00,,,0.00,,2013-08-29 11:52:00,
2013-08-29 07:11:00,74.0,68.0,29.97,West,275,0.0,0.0,82,0.00,,,0.00,,2013-08-29 12:11:00,
2013-08-29 07:22:00,74.0,68.0,29.97,West,279,0.0,0.0,82,0.00,,,0.00,,2013-08-29 12:22:00,
2013-08-29 07:42:00,73.0,67.0,29.98,West,279,0.0,0.0,82,0.00,,,0.00,,2013-08-29 12:42:00,
2013-08-29 07:52:00,73.0,67.0,29.98,West,279,0.0,0.0,82,0.00,,,0.00,,2013-08-29 12:52:00,
2013-08-29 08:12:00,73.0,68.0,29.98,West,279,0.0,0.0,83,0.00,,,0.00,,2013-08-29 13:12:00,
2013-08-29 08:22:00,73.0,68.0,29.98,West,279,0.0,0.0,84,0.00,,,0.00,,2013-08-29 13:22:00,
2013-08-29 08:42:00,74.0,69.0,29.98,West,279,0.0,0.0,84,0.00,,,0.00,,2013-08-29 13:42:00,
2013-08-29 08:52:00,75.0,69.0,29.98,West,279,0.0,0.0,83,0.00,,,0.00,,2013-08-29 13:52:00,
2013-08-29 09:11:00,77.0,70.0,29.99,West,267,0.0,0.0,80,0.00,,,0.00,,2013-08-29 14:11:00,
2013-08-29 09:21:00,79.0,70.0,29.99,West,268,0.0,0.0,74,0.00,,,0.00,,2013-08-29 14:21:00,
2013-08-29 09:52:00,82.0,69.0,30.00,West,267,1.0,8.0,65,0.00,,,0.00,,2013-08-29 14:52:00,
2013-08-29 10:12:00,84.0,69.0,30.00,West,271,4.0,8.0,61,0.00,,,0.00,,2013-08-29 15:12:00,
2013-08-29 10:21:00,85.0,68.0,30.00,West,280,4.0,8.0,57,0.00,,,0.00,,2013-08-29 15:21:00,
2013-08-29 10:43:00,87.0,69.0,29.99,WNW,286,0.0,5.0,55,0.00,,,0.00,,2013-08-29 15:43:00,
2013-08-29 10:53:00,88.0,69.0,29.99,WSW,253,0.0,0.0,53,0.00,,,0.00,,2013-08-29 15:53:00,
2013-08-29 11:24:00,91.0,69.0,29.99,WSW,254,0.0,0.0,48,0.00,,,0.00,,2013-08-29 16:24:00,
2013-08-29 11:43:00,93.0,68.0,29.99,West,267,0.0,0.0,44,0.00,,,0.00,,2013-08-29 16:43:00,
2013-08-29 11:54:00,93.0,68.0,29.98,SSW,199,1.0,6.0,44,0.00,,,0.00,,2013-08-29 16:54:00,
2013-08-29 12:13:00,95.0,68.0,29.98,SSW,199,0.0,7.0,42,0.00,,,0.00,,2013-08-29 17:13:00,
2013-08-29 12:22:00,96.0,68.0,29.98,SSE,168,0.0,1.0,40,0.00,,,0.00,,2013-08-29 17:22:00,
2013-08-29 12:53:00,96.0,68.0,29.96,SE,141,0.0,7.0,40,0.00,,,0.00,,2013-08-29 17:53:00,
2013-08-29 13:21:00,96.0,66.0,29.96,SSE,148,1.0,9.0,38,0.00,,,0.00,,2013-08-29 18:21:00,
2013-08-29 13:52:00,96.0,66.0,29.95,SE,132,2.0,7.0,38,0.00,,,0.00,,2013-08-29 18:52:00,
2013-08-29 14:11:00,96.0,66.0,29.94,SSE,153,3.0,8.0,38,0.00,,,0.00,,2013-08-29 19:11:00,
2013-08-29 14:22:00,95.0,65.0,29.93,SE,133,1.0,8.0,38,0.00,,,0.00,,2013-08-29 19:22:00,
2013-08-29 14:53:00,99.0,67.0,29.91,South,186,0.0,9.0,36,0.00,,,0.00,,2013-08-29 19:53:00,
2013-08-29 15:13:00,99.0,66.0,29.91,SSW,200,3.0,7.0,35,0.00,,,0.00,,2013-08-29 20:13:00,
2013-08-29 15:22:00,102.0,67.0,29.90,SE,137,4.0,9.0,32,0.00,,,0.00,,2013-08-29 20:22:00,
2013-08-29 15:52:00,99.0,64.0,29.88,ESE,117,0.0,7.0,32,0.00,,,0.00,,2013-08-29 20:52:00,
2013-08-29 16:12:00,101.0,65.0,29.88,SE,132,0.0,6.0,31,0.00,,,0.00,,2013-08-29 21:12:00,
2013-08-29 16:22:00,101.0,65.0,29.87,SSE,156,1.0,6.0,31,0.00,,,0.00,,2013-08-29 21:22:00,
2013-08-29 16:44:00,101.0,64.0,29.87,SSE,156,0.0,1.0,30,0.00,,,0.00,,2013-08-29 21:44:00,
2013-08-29 16:54:00,102.0,65.0,29.86,SSW,199,0.0,7.0,30,0.00,,,0.00,,2013-08-29 21:54:00,
2013-08-29 17:14:00,100.0,65.0,29.85,South,187,2.0,10.0,32,0.00,,,0.00,,2013-08-29 22:14:00,
2013-08-29 17:24:00,100.0,65.0,29.85,South,187,2.0,10.0,32,0.00,,,0.00,,2013-08-29 22:24:00,
2013-08-29 17:53:00,100.0,63.0,29.84,SSE,160,2.0,9.0,30,0.00,,,0.00,,2013-08-29 22:53:00,
2013-08-29 18:22:00,100.0,64.0,29.84,SSW,198,0.0,6.0,31,0.00,,,0.00,,2013-08-29 23:22:00,
2013-08-29 18:53:00,98.0,64.0,29.84,South,183,0.0,6.0,33,0.00,,,0.00,,2013-08-29 23:53:00,
2013-08-29 19:21:00,98.0,64.0,29.84,South,184,0.0,3.0,33,0.00,,,0.00,,2013-08-30 00:21:00,
2013-08-29 19:52:00,96.0,65.0,29.84,South,178,0.0,6.0,36,0.00,,,0.00,,2013-08-30 00:52:00,
2013-08-29 20:12:00,95.0,65.0,29.84,South,178,0.0,0.0,37,0.00,,,0.00,,2013-08-30 01:12:00,
2013-08-29 20:22:00,95.0,65.0,29.84,South,178,0.0,0.0,37,0.00,,,0.00,,2013-08-30 01:22:00,
2013-08-29 20:52:00,93.0,64.0,29.85,South,178,0.0,0.0,39,0.00,,,0.00,,2013-08-30 01:52:00,
2013-08-29 21:21:00,92.0,65.0,29.85,South,178,0.0,0.0,41,0.00,,,0.00,,2013-08-30 02:21:00,
2013-08-29 21:42:00,91.0,65.0,29.85,South,178,0.0,0.0,43,0.00,,,0.00,,2013-08-30 02:42:00,
2013-08-29 21:52:00,90.0,66.0,29.86,South,178,0.0,0.0,45,0.00,,,0.00,,2013-08-30 02:52:00,
2013-08-29 22:22:00,89.0,65.0,29.87,South,178,0.0,0.0,46,0.00,,,0.00,,2013-08-30 03:22:00,
2013-08-29 22:55:00,87.0,65.0,29.87,South,178,0.0,0.0,49,0.00,,,0.00,,2013-08-30 03:55:00,
2013-08-29 23:14:00,87.0,65.0,29.87,South,178,0.0,0.0,49,0.00,,,0.00,,2013-08-30 04:14:00,
2013-08-29 23:24:00,86.0,65.0,29.87,South,178,0.0,0.0,50,0.00,,,0.00,,2013-08-30 04:24:00,
2013-08-29 23:54:00,85.0,65.0,29.87,South,178,0.0,0.0,51,0.00,,,0.00,,2013-08-30 04:54:00,